createdAt,value
2018-05-10T00:00:00.773Z,41.54
2018-05-10T00:02:28.469Z,41.47
2018-05-10T00:04:55.988Z,40.64
2018-05-10T00:07:23.512Z,41.20
2018-05-10T00:09:51.677Z,42.48
2018-05-10T00:12:19.189Z,42.17
2018-05-10T00:14:46.713Z,42.66
2018-05-10T00:17:14.284Z,42.00
2018-05-10T00:19:41.804Z,41.88
2018-05-10T00:22:09.318Z,42.53
2018-05-10T00:24:37.112Z,42.51
2018-05-10T00:27:04.641Z,43.20
2018-05-10T00:29:32.173Z,42.89
2018-05-10T00:31:59.801Z,42.60
2018-05-10T00:34:27.312Z,41.79
2018-05-10T00:36:54.840Z,42.29
2018-05-10T00:39:22.452Z,42.88
2018-05-10T00:41:49.960Z,42.13
2018-05-10T00:44:17.477Z,41.57
2018-05-10T00:46:45.376Z,41.76
2018-05-10T00:49:12.904Z,42.20
2018-05-10T00:51:40.420Z,43.25
2018-05-10T00:54:08.196Z,42.32
2018-05-10T00:56:35.718Z,42.14
2018-05-10T00:59:03.313Z,42.55
2018-05-10T01:01:31.009Z,42.83
2018-05-10T01:03:58.533Z,42.80
2018-05-10T01:06:26.176Z,43.03
2018-05-10T01:08:53.750Z,42.53
2018-05-10T01:11:21.390Z,43.15
2018-05-10T01:13:48.937Z,43.75
2018-05-10T01:16:20.153Z,44.58
2018-05-10T01:18:47.845Z,43.63
2018-05-10T01:21:15.507Z,43.67
2018-05-10T01:23:43.211Z,43.78
2018-05-10T01:26:10.729Z,43.71
2018-05-10T01:28:38.453Z,43.50
2018-05-10T01:31:06.127Z,44.09
2018-05-10T01:33:33.637Z,43.54
2018-05-10T01:36:14.187Z,43.54
2018-05-10T01:38:41.701Z,43.36
2018-05-10T01:41:10.740Z,43.67
2018-05-10T01:43:38.368Z,43.08
2018-05-10T01:46:05.889Z,44.46
2018-05-10T01:48:33.422Z,45.13
2018-05-10T01:51:01.152Z,45.08
2018-05-10T01:53:28.655Z,45.47
2018-05-10T01:55:56.240Z,45.87
2018-05-10T01:58:23.945Z,47.10
2018-05-10T02:00:52.533Z,48.25
2018-05-10T02:03:20.776Z,48.66
2018-05-10T02:05:48.769Z,48.29
2018-05-10T02:08:16.288Z,49.09
2018-05-10T02:10:43.897Z,50.55
2018-05-10T02:13:12.088Z,49.21
2018-05-10T02:15:39.614Z,49.97
2018-05-10T02:18:07.129Z,49.16
2018-05-10T02:20:34.683Z,49.92
2018-05-10T02:23:02.785Z,49.81
2018-05-10T02:25:31.118Z,49.23
2018-05-10T02:27:58.840Z,49.00
2018-05-10T02:30:26.357Z,51.37
2018-05-10T02:32:53.895Z,50.55
2018-05-10T02:35:21.621Z,49.58
2018-05-10T02:37:49.144Z,50.57
2018-05-10T02:40:16.660Z,51.03
2018-05-10T02:42:44.505Z,49.46
2018-05-10T02:45:12.025Z,49.74
2018-05-10T02:47:39.538Z,51.00
2018-05-10T02:50:07.278Z,51.98
2018-05-10T02:52:34.793Z,52.32
2018-05-10T02:55:02.330Z,51.89
2018-05-10T02:57:30.069Z,51.45
2018-05-10T02:59:57.593Z,51.65
2018-05-10T03:02:25.113Z,51.37
2018-05-10T03:04:52.800Z,52.47
2018-05-10T03:07:20.325Z,52.77
2018-05-10T03:09:47.844Z,53.84
2018-05-10T03:12:15.620Z,53.90
2018-05-10T03:14:43.601Z,53.83
2018-05-10T03:17:11.129Z,53.46
2018-05-10T03:19:38.816Z,53.35
2018-05-10T03:22:06.341Z,54.03
2018-05-10T03:24:33.865Z,53.54
2018-05-10T03:27:01.598Z,53.80
2018-05-10T03:29:29.120Z,53.27
2018-05-10T03:31:56.660Z,53.33
2018-05-10T03:34:24.584Z,53.32
2018-05-10T03:36:52.571Z,53.42
2018-05-10T03:39:20.097Z,53.21
2018-05-10T03:41:47.776Z,53.52
2018-05-10T03:44:15.292Z,55.94
2018-05-10T03:46:42.812Z,56.94
2018-05-10T03:49:10.620Z,57.59
2018-05-10T03:51:38.148Z,59.28
2018-05-10T03:54:05.688Z,59.41
2018-05-10T03:56:33.432Z,58.66
2018-05-10T03:59:00.951Z,58.94
2018-05-10T04:01:28.466Z,58.58
2018-05-10T04:04:08.115Z,58.82
2018-05-10T04:06:47.633Z,58.06
2018-05-10T04:09:27.164Z,58.74
2018-05-10T04:11:54.694Z,58.76
2018-05-10T04:14:22.217Z,59.38
2018-05-10T04:16:50.056Z,58.31
2018-05-10T04:19:17.572Z,58.59
2018-05-10T04:21:45.097Z,58.06
2018-05-10T04:24:12.953Z,57.72
2018-05-10T04:26:40.474Z,56.98
2018-05-10T04:29:08.004Z,56.06
2018-05-10T04:31:35.560Z,55.79
2018-05-10T04:34:03.108Z,55.41
2018-05-10T04:36:30.633Z,54.66
2018-05-10T04:38:58.603Z,53.68
2018-05-10T04:41:26.133Z,54.16
2018-05-10T04:43:53.668Z,53.38
2018-05-10T04:46:21.386Z,53.97
2018-05-10T04:48:48.905Z,54.79
2018-05-10T04:51:16.420Z,54.97
2018-05-10T04:53:43.973Z,54.68
2018-05-10T04:56:11.495Z,55.41
2018-05-10T04:58:39.026Z,55.42
2018-05-10T05:01:06.746Z,55.50
2018-05-10T05:03:34.264Z,56.23
2018-05-10T05:06:01.804Z,55.67
2018-05-10T05:08:29.728Z,55.84
2018-05-10T05:10:57.249Z,56.25
2018-05-10T05:13:24.776Z,56.11
2018-05-10T05:15:52.344Z,56.05
2018-05-10T05:18:19.865Z,55.41
2018-05-10T05:20:47.384Z,55.80
2018-05-10T05:23:15.084Z,55.73
2018-05-10T05:25:42.604Z,55.73
2018-05-10T05:28:10.135Z,54.44
2018-05-10T05:30:37.968Z,54.67
2018-05-10T05:33:05.494Z,54.62
2018-05-10T05:35:33.025Z,54.91
2018-05-10T05:38:00.750Z,55.17
2018-05-10T05:40:28.275Z,56.05
2018-05-10T05:42:55.796Z,56.71
2018-05-10T05:45:23.528Z,56.91
2018-05-10T05:47:51.050Z,56.49
2018-05-10T05:50:18.608Z,57.10
2018-05-10T05:52:46.334Z,57.34
2018-05-10T05:55:13.893Z,58.48
2018-05-10T05:57:41.413Z,58.66
2018-05-10T06:00:09.080Z,58.44
2018-05-10T06:02:36.600Z,58.83
2018-05-10T06:05:04.132Z,58.58
2018-05-10T06:07:31.889Z,57.58
2018-05-10T06:09:59.493Z,56.68
2018-05-10T06:12:27.047Z,55.99
2018-05-10T06:14:54.619Z,56.59
2018-05-10T06:17:22.141Z,55.69
2018-05-10T06:19:49.676Z,55.53
2018-05-10T06:22:17.459Z,55.33
2018-05-10T06:24:45.046Z,55.43
2018-05-10T06:27:12.525Z,56.10
2018-05-10T06:29:40.320Z,55.83
2018-05-10T06:32:08.802Z,56.47
2018-05-10T06:34:36.324Z,56.76
2018-05-10T06:37:04.217Z,56.39
2018-05-10T06:39:31.741Z,56.52
2018-05-10T06:41:59.261Z,56.76
2018-05-10T06:44:27.126Z,56.40
2018-05-10T06:46:55.382Z,55.22
2018-05-10T06:49:23.164Z,54.73
2018-05-10T06:51:51.023Z,53.39
2018-05-10T06:54:18.591Z,52.40
2018-05-10T06:56:46.116Z,51.27
2018-05-10T06:59:13.684Z,48.97
2018-05-10T07:01:41.199Z,47.99
2018-05-10T07:04:08.740Z,47.76
2018-05-10T07:06:36.668Z,46.61
2018-05-10T07:09:05.497Z,46.41
2018-05-10T07:11:33.204Z,43.55
2018-05-10T07:14:01.113Z,42.07
2018-05-10T07:16:28.649Z,41.78
2018-05-10T07:18:56.176Z,42.70
2018-05-10T07:21:23.790Z,42.61
2018-05-10T07:23:51.766Z,41.97
2018-05-10T07:26:19.548Z,42.23
2018-05-10T07:28:47.475Z,42.10
2018-05-10T07:31:15.731Z,42.56
2018-05-10T07:33:43.634Z,44.47
2018-05-10T07:36:12.122Z,44.84
2018-05-10T07:38:39.641Z,45.37
2018-05-10T07:41:07.337Z,46.84
2018-05-10T07:43:35.411Z,47.54
2018-05-10T07:46:02.961Z,48.87
2018-05-10T07:48:30.631Z,48.50
2018-05-10T07:50:58.497Z,48.05
2018-05-10T07:53:27.388Z,47.76
2018-05-10T07:55:55.768Z,48.68
2018-05-10T07:58:23.762Z,50.10
2018-05-10T08:00:52.436Z,48.47
2018-05-10T08:03:20.359Z,49.65
2018-05-10T08:05:48.343Z,50.02
2018-05-10T08:08:16.533Z,50.59
2018-05-10T08:10:44.200Z,49.86
2018-05-10T08:13:12.044Z,48.90
2018-05-10T08:15:40.132Z,48.99
2018-05-10T08:18:08.102Z,49.94
2018-05-10T08:20:36.123Z,49.18
2018-05-10T08:23:04.042Z,49.60
2018-05-10T08:25:31.916Z,48.89
2018-05-10T08:28:00.048Z,47.65
2018-05-10T08:30:27.845Z,45.54
2018-05-10T08:32:55.783Z,43.70
2018-05-10T08:35:24.602Z,40.95
2018-05-10T08:37:52.501Z,38.99
2018-05-10T08:40:20.151Z,38.96
2018-05-10T08:42:47.995Z,35.77
2018-05-10T08:45:15.863Z,34.82
2018-05-10T08:47:43.729Z,37.02
2018-05-10T08:50:11.492Z,34.31
2018-05-10T08:52:39.871Z,33.35
2018-05-10T08:55:07.739Z,31.95
2018-05-10T08:57:35.587Z,32.86
2018-05-10T09:00:03.397Z,30.97
2018-05-10T09:02:31.338Z,30.28
2018-05-10T09:04:59.410Z,29.72
2018-05-10T09:07:27.727Z,31.60
2018-05-10T09:09:55.447Z,30.81
2018-05-10T09:12:24.213Z,33.15
2018-05-10T09:14:52.092Z,35.26
2018-05-10T09:17:20.385Z,36.33
2018-05-10T09:19:48.180Z,39.57
2018-05-10T09:22:15.808Z,39.54
2018-05-10T09:24:43.621Z,38.48
2018-05-10T09:27:11.950Z,37.13
2018-05-10T09:29:39.521Z,36.64
2018-05-10T09:32:07.041Z,35.78
2018-05-10T09:34:34.934Z,37.14
2018-05-10T09:37:02.598Z,37.68
2018-05-10T09:39:30.455Z,38.00
2018-05-10T09:41:58.127Z,39.66
2018-05-10T09:44:25.880Z,41.70
2018-05-10T09:46:53.609Z,41.37
2018-05-10T09:49:21.314Z,43.37
2018-05-10T09:51:48.910Z,42.34
2018-05-10T09:54:16.618Z,42.75
2018-05-10T09:56:44.301Z,44.32
2018-05-10T09:59:12.172Z,44.70
2018-05-10T10:01:39.829Z,44.28
2018-05-10T10:04:07.578Z,43.13
2018-05-10T10:06:35.553Z,45.28
2018-05-10T10:09:03.325Z,45.06
2018-05-10T10:11:31.113Z,47.67
2018-05-10T10:13:58.957Z,46.80
2018-05-10T10:16:26.724Z,46.77
2018-05-10T10:18:54.895Z,47.87
2018-05-10T10:21:22.817Z,47.73
2018-05-10T10:23:50.395Z,47.00
2018-05-10T10:26:18.700Z,48.12
2018-05-10T10:28:46.566Z,47.84
2018-05-10T10:31:14.231Z,47.49
2018-05-10T10:33:42.299Z,45.08
2018-05-10T10:36:10.220Z,47.28
2018-05-10T10:38:38.134Z,46.80
2018-05-10T10:41:06.209Z,46.54
2018-05-10T10:43:34.277Z,47.79
2018-05-10T10:46:02.656Z,48.57
2018-05-10T10:48:30.821Z,48.67
2018-05-10T10:50:58.902Z,48.11
2018-05-10T10:53:26.668Z,48.34
2018-05-10T10:55:54.807Z,49.79
2018-05-10T10:58:22.705Z,49.65
2018-05-10T11:00:50.777Z,50.56
2018-05-10T11:03:18.850Z,51.47
2018-05-10T11:05:46.715Z,48.96
2018-05-10T11:08:14.463Z,49.15
2018-05-10T11:10:43.165Z,50.46
2018-05-10T11:13:11.543Z,48.55
2018-05-10T11:15:39.302Z,50.28
2018-05-10T11:18:07.281Z,50.55
2018-05-10T11:20:35.144Z,49.23
2018-05-10T11:23:03.115Z,48.17
2018-05-10T11:25:31.184Z,49.13
2018-05-10T11:27:58.935Z,48.79
2018-05-10T11:30:26.709Z,47.90
2018-05-10T11:32:54.856Z,47.25
2018-05-10T11:35:22.753Z,47.14
2018-05-10T11:37:50.619Z,45.61
2018-05-10T11:40:18.595Z,43.85
2018-05-10T11:42:46.458Z,43.12
2018-05-10T11:45:14.426Z,44.08
2018-05-10T11:47:42.601Z,43.97
2018-05-10T11:50:10.260Z,44.22
2018-05-10T11:52:38.127Z,45.02
2018-05-10T11:55:06.096Z,43.59
2018-05-10T11:57:34.070Z,42.41
2018-05-10T12:00:02.223Z,42.33
2018-05-10T12:02:31.738Z,42.71
2018-05-10T12:04:59.860Z,43.04
2018-05-10T12:07:27.588Z,43.47
2018-05-10T12:09:55.184Z,43.13
2018-05-10T12:12:22.989Z,43.10
2018-05-10T12:14:51.049Z,42.69
2018-05-10T12:17:18.843Z,42.21
2018-05-10T12:19:46.564Z,41.81
2018-05-10T12:22:14.473Z,41.33
2018-05-10T12:24:43.500Z,41.95
2018-05-10T12:27:12.485Z,43.24
2018-05-10T12:29:40.854Z,44.22
2018-05-10T12:32:09.148Z,44.43
2018-05-10T12:34:36.879Z,44.90
2018-05-10T12:37:04.845Z,44.39
2018-05-10T12:39:33.107Z,43.73
2018-05-10T12:42:01.192Z,42.31
2018-05-10T12:44:29.061Z,40.68
2018-05-10T12:46:58.452Z,40.23
2018-05-10T12:49:26.430Z,39.30
2018-05-10T12:51:54.043Z,38.99
2018-05-10T12:54:22.984Z,39.56
2018-05-10T12:56:50.854Z,39.96
2018-05-10T12:59:18.825Z,40.00
2018-05-10T13:01:46.676Z,40.68
2018-05-10T13:04:14.449Z,40.70
2018-05-10T13:06:43.155Z,40.59
2018-05-10T13:09:11.823Z,41.46
2018-05-10T13:11:39.648Z,42.41
2018-05-10T13:14:07.656Z,43.36
2018-05-10T13:16:35.349Z,44.11
2018-05-10T13:19:03.025Z,44.96
2018-05-10T13:21:30.846Z,45.02
2018-05-10T13:23:58.577Z,44.32
2018-05-10T13:26:26.380Z,43.51
2018-05-10T13:28:54.267Z,44.32
2018-05-10T13:31:22.210Z,44.67
2018-05-10T13:33:50.096Z,44.56
2018-05-10T13:36:17.944Z,44.33
2018-05-10T13:38:46.082Z,44.42
2018-05-10T13:41:13.759Z,46.40
2018-05-10T13:43:41.647Z,46.83
2018-05-10T13:46:10.536Z,47.46
2018-05-10T13:48:38.611Z,48.84
2018-05-10T13:51:06.474Z,48.38
2018-05-10T13:53:34.853Z,50.17
2018-05-10T13:56:02.821Z,50.39
2018-05-10T13:58:30.892Z,51.21
2018-05-10T14:00:59.169Z,51.38
2018-05-10T14:03:27.037Z,50.64
2018-05-10T14:05:54.980Z,49.55
2018-05-10T14:08:22.974Z,50.04
2018-05-10T14:10:51.005Z,49.19
2018-05-10T14:13:19.730Z,48.88
2018-05-10T14:15:48.403Z,49.23
2018-05-10T14:18:16.284Z,49.16
2018-05-10T14:20:44.253Z,49.37
2018-05-10T14:23:12.135Z,49.03
2018-05-10T14:25:40.113Z,49.82
2018-05-10T14:28:08.058Z,50.05
2018-05-10T14:30:36.230Z,50.03
2018-05-10T14:33:04.098Z,50.50
2018-05-10T14:35:32.158Z,51.59
2018-05-10T14:38:01.162Z,52.13
2018-05-10T14:40:29.196Z,51.46
2018-05-10T14:42:57.612Z,55.89
2018-05-10T14:45:26.400Z,55.96
2018-05-10T14:47:54.369Z,57.07
2018-05-10T14:50:23.260Z,57.58
2018-05-10T14:52:52.149Z,56.84
2018-05-10T14:55:20.017Z,58.00
2018-05-10T14:57:47.986Z,59.01
2018-05-10T15:00:17.084Z,57.36
2018-05-10T15:02:45.146Z,56.98
2018-05-10T15:05:13.019Z,57.09
2018-05-10T15:07:41.401Z,56.03
2018-05-10T15:10:09.367Z,55.48
2018-05-10T15:12:37.233Z,54.91
2018-05-10T15:15:06.840Z,55.27
2018-05-10T15:17:34.871Z,55.13
2018-05-10T15:20:02.742Z,54.88
2018-05-10T15:22:30.644Z,54.49
2018-05-10T15:24:58.716Z,54.58
2018-05-10T15:27:26.638Z,54.03
2018-05-10T15:29:54.910Z,54.14
2018-05-10T15:32:24.007Z,54.79
2018-05-10T15:34:52.096Z,54.25
2018-05-10T15:37:20.612Z,54.42
2018-05-10T15:39:48.548Z,54.16
2018-05-10T15:42:16.650Z,54.09
2018-05-10T15:44:44.823Z,53.44
2018-05-10T15:47:12.827Z,52.40
2018-05-10T15:49:41.010Z,52.04
2018-05-10T15:52:09.432Z,52.37
2018-05-10T15:54:38.133Z,51.48
2018-05-10T15:57:05.999Z,51.79
2018-05-10T15:59:34.172Z,50.97
2018-05-10T16:02:02.148Z,50.37
2018-05-10T16:04:30.419Z,50.35
2018-05-10T16:06:58.718Z,49.21
2018-05-10T16:09:26.766Z,50.15
2018-05-10T16:11:54.633Z,49.99
2018-05-10T16:14:22.602Z,49.79
2018-05-10T16:16:52.211Z,50.14
2018-05-10T16:19:19.988Z,50.66
2018-05-10T16:21:48.250Z,50.29
2018-05-10T16:24:16.219Z,50.58
2018-05-10T16:26:45.007Z,50.98
2018-05-10T16:29:13.183Z,51.25
2018-05-10T16:31:41.047Z,51.85
2018-05-10T16:34:08.913Z,52.48
2018-05-10T16:36:36.882Z,52.46
2018-05-10T16:39:05.831Z,53.10
2018-05-10T16:41:34.152Z,53.57
2018-05-10T16:44:02.325Z,53.92
2018-05-10T16:46:30.499Z,54.78
2018-05-10T16:48:58.468Z,55.15
2018-05-10T16:51:26.438Z,54.05
2018-05-10T16:53:54.304Z,54.90
2018-05-10T16:56:22.171Z,54.30
2018-05-10T16:58:50.549Z,54.52
2018-05-10T17:01:18.418Z,54.65
2018-05-10T17:03:47.306Z,54.51
2018-05-10T17:06:15.541Z,55.47
2018-05-10T17:08:43.449Z,55.79
2018-05-10T17:11:11.417Z,55.97
2018-05-10T17:13:39.591Z,56.27
2018-05-10T17:16:08.181Z,56.49
2018-05-10T17:18:36.017Z,55.83
2018-05-10T17:21:04.215Z,56.10
2018-05-10T17:23:33.823Z,55.63
2018-05-10T17:26:01.797Z,55.48
2018-05-10T17:28:30.069Z,55.55
2018-05-10T17:30:59.009Z,55.25
2018-05-10T17:33:26.927Z,55.63
2018-05-10T17:35:55.011Z,55.45
2018-05-10T17:38:22.867Z,55.32
2018-05-10T17:40:50.644Z,55.31
2018-05-10T17:43:19.325Z,55.40
2018-05-10T17:45:47.613Z,55.19
2018-05-10T17:48:15.514Z,55.39
2018-05-10T17:50:43.433Z,54.78
2018-05-10T17:53:11.398Z,54.38
2018-05-10T17:55:39.174Z,55.17
2018-05-10T17:58:07.149Z,54.62
2018-05-10T18:00:35.099Z,54.42
2018-05-10T18:03:02.964Z,54.90
2018-05-10T18:05:30.949Z,54.84
2018-05-10T18:07:58.800Z,54.52
2018-05-10T18:10:26.733Z,54.72
2018-05-10T18:12:54.841Z,54.06
2018-05-10T18:15:22.503Z,53.81
2018-05-10T18:17:50.733Z,53.57
2018-05-10T18:20:18.527Z,53.54
2018-05-10T18:22:46.618Z,53.44
2018-05-10T18:25:15.001Z,53.85
2018-05-10T18:27:43.269Z,53.63
2018-05-10T18:30:11.195Z,53.71
2018-05-10T18:32:39.061Z,53.39
2018-05-10T18:35:07.278Z,52.95
2018-05-10T18:37:35.050Z,53.12
2018-05-10T18:40:03.137Z,52.51
2018-05-10T18:42:31.186Z,52.58
2018-05-10T18:44:58.972Z,52.30
2018-05-10T18:47:26.793Z,52.31
2018-05-10T18:49:54.683Z,52.06
2018-05-10T18:52:22.472Z,52.59
2018-05-10T18:54:50.348Z,52.67
2018-05-10T18:57:18.854Z,52.48
2018-05-10T18:59:47.174Z,51.88
2018-05-10T19:02:16.371Z,51.82
2018-05-10T19:04:44.135Z,52.16
2018-05-10T19:07:12.465Z,51.40
2018-05-10T19:09:40.278Z,51.27
2018-05-10T19:12:08.351Z,51.49
2018-05-10T19:14:36.215Z,51.22
2018-05-10T19:17:04.185Z,51.20
2018-05-10T19:19:32.107Z,51.06
2018-05-10T19:21:59.911Z,50.89
2018-05-10T19:24:27.767Z,51.62
2018-05-10T19:26:55.551Z,51.42
2018-05-10T19:29:23.290Z,51.99
2018-05-10T19:31:51.474Z,52.06
2018-05-10T19:34:19.354Z,52.25
2018-05-10T19:36:47.220Z,51.83
2018-05-10T19:39:16.417Z,51.64
2018-05-10T19:41:45.719Z,51.51
2018-05-10T19:44:13.690Z,51.93
2018-05-10T19:46:41.553Z,51.54
2018-05-10T19:49:09.556Z,51.76
2018-05-10T19:51:37.491Z,51.86
2018-05-10T19:54:05.298Z,52.10
2018-05-10T19:56:33.164Z,51.87
2018-05-10T19:59:00.988Z,52.03
2018-05-10T20:01:28.857Z,52.18
2018-05-10T20:03:57.143Z,52.70
2018-05-10T20:06:25.408Z,52.93
2018-05-10T20:08:53.248Z,52.81
2018-05-10T20:11:21.244Z,52.88
2018-05-10T20:13:49.118Z,53.18
2018-05-10T20:16:17.180Z,53.73
2018-05-10T20:18:45.578Z,53.73
2018-05-10T20:21:13.517Z,53.69
2018-05-10T20:23:41.351Z,54.08
2018-05-10T20:26:09.263Z,53.77
2018-05-10T20:28:37.588Z,54.15
2018-05-10T20:31:05.620Z,54.18
2018-05-10T20:33:33.989Z,54.77
2018-05-10T20:36:02.821Z,54.71
2018-05-10T20:38:31.975Z,54.43
2018-05-10T20:41:00.256Z,54.28
2018-05-10T20:43:29.339Z,54.11
2018-05-10T20:45:57.212Z,54.32
2018-05-10T20:48:25.348Z,54.43
2018-05-10T20:50:53.254Z,54.23
2018-05-10T20:53:21.120Z,54.30
2018-05-10T20:55:49.346Z,54.25
2018-05-10T20:58:17.980Z,54.90
2018-05-10T21:00:45.952Z,54.58
2018-05-10T21:03:14.020Z,54.94
2018-05-10T21:05:41.784Z,54.71
2018-05-10T21:08:09.664Z,55.24
2018-05-10T21:10:37.823Z,55.47
2018-05-10T21:13:05.595Z,54.91
2018-05-10T21:15:33.557Z,55.33
2018-05-10T21:18:04.920Z,55.29
2018-05-10T21:20:32.776Z,55.54
2018-05-10T21:23:00.434Z,55.44
2018-05-10T21:25:28.196Z,55.67
2018-05-10T21:27:56.066Z,55.77
2018-05-10T21:30:23.930Z,56.12
2018-05-10T21:32:52.616Z,56.36
2018-05-10T21:35:20.513Z,56.59
2018-05-10T21:37:48.555Z,57.42
2018-05-10T21:40:16.626Z,57.08
2018-05-10T21:42:45.319Z,57.04
2018-05-10T21:45:20.350Z,57.33
2018-05-10T21:47:48.011Z,57.21
2018-05-10T21:50:15.598Z,57.22
2018-05-10T21:52:44.005Z,57.38
2018-05-10T21:55:12.017Z,57.23
2018-05-10T21:57:39.601Z,58.33
2018-05-10T22:00:07.544Z,58.40
2018-05-10T22:02:35.313Z,58.43
2018-05-10T22:05:02.973Z,59.17
2018-05-10T22:07:30.891Z,59.82
2018-05-10T22:09:58.681Z,60.24
2018-05-10T22:12:26.246Z,60.48
2018-05-10T22:14:54.028Z,60.25
2018-05-10T22:17:21.566Z,60.26
2018-05-10T22:19:49.444Z,60.78
2018-05-10T22:22:17.147Z,61.47
2018-05-10T22:24:45.594Z,60.92
2018-05-10T22:27:13.326Z,60.39
2018-05-10T22:29:41.121Z,61.35
2018-05-10T22:32:08.658Z,60.68
2018-05-10T22:34:36.369Z,60.38
2018-05-10T22:37:05.239Z,61.23
2018-05-10T22:39:32.768Z,62.23
2018-05-10T22:42:00.297Z,62.88
2018-05-10T22:44:27.952Z,63.29
2018-05-10T22:46:55.437Z,62.56
2018-05-10T22:49:22.979Z,62.79
2018-05-10T22:51:52.272Z,63.49
2018-05-10T22:54:19.813Z,62.89
2018-05-10T22:56:47.352Z,62.90
2018-05-10T22:59:15.180Z,62.92
2018-05-10T23:01:42.725Z,62.61
2018-05-10T23:04:10.256Z,61.28
2018-05-10T23:06:38.001Z,61.05
2018-05-10T23:09:06.377Z,60.78
2018-05-10T23:11:33.940Z,61.75
2018-05-10T23:14:01.597Z,60.86
2018-05-10T23:16:29.125Z,62.52
2018-05-10T23:18:56.710Z,61.91
2018-05-10T23:21:24.787Z,60.91
2018-05-10T23:23:52.582Z,61.13
2018-05-10T23:26:20.680Z,61.45
2018-05-10T23:28:48.308Z,61.28
2018-05-10T23:31:15.897Z,61.47
2018-05-10T23:33:44.409Z,62.65
2018-05-10T23:36:12.174Z,62.69
2018-05-10T23:38:39.702Z,62.84
2018-05-10T23:41:07.234Z,63.27
2018-05-10T23:43:35.154Z,62.25
2018-05-10T23:46:02.955Z,62.37
2018-05-10T23:48:30.600Z,62.61
2018-05-10T23:50:58.162Z,62.66
2018-05-10T23:53:25.712Z,62.49
2018-05-10T23:55:53.236Z,62.97
2018-05-10T23:58:21.024Z,62.80
